sensor_id;sensor_type;location;lat;lon;timestamp;P1;durP1;ratioP1;P2;durP2;ratioP2
19016;SDS011;9641;51.494;6.670;2022-08-21T00:00:13;5.27;;;2.50;;
19016;SDS011;9641;51.494;6.670;2022-08-21T00:02:44;9.10;;;2.00;;
19016;SDS011;9641;51.494;6.670;2022-08-21T00:05:13;4.83;;;2.47;;
19016;SDS011;9641;51.494;6.670;2022-08-21T00:07:41;3.13;;;2.20;;
19016;SDS011;9641;51.494;6.670;2022-08-21T00:10:08;5.17;;;2.37;;
19016;SDS011;9641;51.494;6.670;2022-08-21T00:12:35;3.93;;;2.27;;
19016;SDS011;9641;51.494;6.670;2022-08-21T00:15:03;3.07;;;1.73;;
19016;SDS011;9641;51.494;6.670;2022-08-21T00:17:31;5.40;;;2.23;;
19016;SDS011;9641;51.494;6.670;2022-08-21T00:19:58;4.80;;;2.10;;
19016;SDS011;9641;51.494;6.670;2022-08-21T00:22:25;4.37;;;2.40;;
19016;SDS011;9641;51.494;6.670;2022-08-21T00:24:53;4.67;;;2.53;;
19016;SDS011;9641;51.494;6.670;2022-08-21T00:27:20;4.43;;;2.20;;
19016;SDS011;9641;51.494;6.670;2022-08-21T00:29:47;4.70;;;2.47;;
19016;SDS011;9641;51.494;6.670;2022-08-21T00:32:18;4.60;;;2.47;;
19016;SDS011;9641;51.494;6.670;2022-08-21T00:34:46;4.97;;;2.17;;
19016;SDS011;9641;51.494;6.670;2022-08-21T00:37:13;6.90;;;3.03;;
19016;SDS011;9641;51.494;6.670;2022-08-21T00:39:39;5.90;;;2.03;;
19016;SDS011;9641;51.494;6.670;2022-08-21T00:42:08;2.60;;;2.37;;
19016;SDS011;9641;51.494;6.670;2022-08-21T00:44:35;5.10;;;2.50;;
19016;SDS011;9641;51.494;6.670;2022-08-21T00:47:02;3.80;;;2.30;;
19016;SDS011;9641;51.494;6.670;2022-08-21T00:49:29;3.43;;;2.13;;
19016;SDS011;9641;51.494;6.670;2022-08-21T00:51:57;2.73;;;2.37;;
19016;SDS011;9641;51.494;6.670;2022-08-21T00:54:27;4.13;;;2.40;;
19016;SDS011;9641;51.494;6.670;2022-08-21T00:56:58;4.27;;;2.53;;
19016;SDS011;9641;51.494;6.670;2022-08-21T00:59:29;4.73;;;2.30;;
19016;SDS011;9641;51.494;6.670;2022-08-21T01:01:58;4.60;;;2.43;;
19016;SDS011;9641;51.494;6.670;2022-08-21T01:04:25;7.43;;;2.73;;
19016;SDS011;9641;51.494;6.670;2022-08-21T01:06:52;4.50;;;2.40;;
19016;SDS011;9641;51.494;6.670;2022-08-21T01:09:20;2.33;;;2.13;;
19016;SDS011;9641;51.494;6.670;2022-08-21T01:11:47;4.57;;;2.53;;
19016;SDS011;9641;51.494;6.670;2022-08-21T01:14:14;5.37;;;3.30;;
19016;SDS011;9641;51.494;6.670;2022-08-21T01:16:46;4.87;;;2.30;;
19016;SDS011;9641;51.494;6.670;2022-08-21T01:19:17;3.87;;;2.87;;
19016;SDS011;9641;51.494;6.670;2022-08-21T01:21:47;2.77;;;2.47;;
19016;SDS011;9641;51.494;6.670;2022-08-21T01:24:14;4.63;;;2.63;;
19016;SDS011;9641;51.494;6.670;2022-08-21T01:26:42;6.37;;;2.80;;
19016;SDS011;9641;51.494;6.670;2022-08-21T01:29:11;5.47;;;3.20;;
19016;SDS011;9641;51.494;6.670;2022-08-21T01:31:42;7.63;;;3.40;;
19016;SDS011;9641;51.494;6.670;2022-08-21T01:34:09;5.80;;;3.00;;
19016;SDS011;9641;51.494;6.670;2022-08-21T01:36:36;5.17;;;3.10;;
19016;SDS011;9641;51.494;6.670;2022-08-21T01:39:05;6.13;;;3.20;;
19016;SDS011;9641;51.494;6.670;2022-08-21T01:41:32;4.37;;;3.07;;
19016;SDS011;9641;51.494;6.670;2022-08-21T01:43:59;6.23;;;3.07;;
19016;SDS011;9641;51.494;6.670;2022-08-21T01:46:26;5.07;;;3.10;;
19016;SDS011;9641;51.494;6.670;2022-08-21T01:48:53;8.53;;;3.47;;
19016;SDS011;9641;51.494;6.670;2022-08-21T01:51:19;4.57;;;3.40;;
19016;SDS011;9641;51.494;6.670;2022-08-21T01:53:46;5.77;;;3.10;;
19016;SDS011;9641;51.494;6.670;2022-08-21T01:56:15;6.33;;;3.50;;
19016;SDS011;9641;51.494;6.670;2022-08-21T01:58:43;5.33;;;3.20;;
19016;SDS011;9641;51.494;6.670;2022-08-21T02:01:12;9.30;;;3.50;;
19016;SDS011;9641;51.494;6.670;2022-08-21T02:03:39;9.07;;;3.83;;
19016;SDS011;9641;51.494;6.670;2022-08-21T02:06:07;6.30;;;3.83;;
19016;SDS011;9641;51.494;6.670;2022-08-21T02:08:40;8.70;;;3.27;;
19016;SDS011;9641;51.494;6.670;2022-08-21T02:11:06;4.17;;;3.40;;
19016;SDS011;9641;51.494;6.670;2022-08-21T02:13:35;8.77;;;4.33;;
19016;SDS011;9641;51.494;6.670;2022-08-21T02:16:02;6.80;;;3.33;;
19016;SDS011;9641;51.494;6.670;2022-08-21T02:18:29;3.67;;;3.00;;
19016;SDS011;9641;51.494;6.670;2022-08-21T02:20:57;5.27;;;3.23;;
19016;SDS011;9641;51.494;6.670;2022-08-21T02:23:24;6.30;;;3.20;;
19016;SDS011;9641;51.494;6.670;2022-08-21T02:25:50;5.20;;;3.37;;
19016;SDS011;9641;51.494;6.670;2022-08-21T02:28:17;3.93;;;3.13;;
19016;SDS011;9641;51.494;6.670;2022-08-21T02:30:46;7.73;;;3.30;;
19016;SDS011;9641;51.494;6.670;2022-08-21T02:33:14;8.70;;;3.60;;
19016;SDS011;9641;51.494;6.670;2022-08-21T02:35:42;7.23;;;3.50;;
19016;SDS011;9641;51.494;6.670;2022-08-21T02:38:11;5.07;;;3.33;;
19016;SDS011;9641;51.494;6.670;2022-08-21T02:40:40;5.27;;;3.33;;
19016;SDS011;9641;51.494;6.670;2022-08-21T02:43:09;4.90;;;3.07;;
19016;SDS011;9641;51.494;6.670;2022-08-21T02:45:37;8.80;;;3.10;;
19016;SDS011;9641;51.494;6.670;2022-08-21T02:48:07;4.03;;;2.70;;
19016;SDS011;9641;51.494;6.670;2022-08-21T02:50:36;4.50;;;3.53;;
19016;SDS011;9641;51.494;6.670;2022-08-21T02:53:05;3.00;;;2.80;;
19016;SDS011;9641;51.494;6.670;2022-08-21T02:55:33;6.27;;;3.20;;
19016;SDS011;9641;51.494;6.670;2022-08-21T02:58:01;5.43;;;3.33;;
19016;SDS011;9641;51.494;6.670;2022-08-21T03:00:30;8.47;;;3.60;;
19016;SDS011;9641;51.494;6.670;2022-08-21T03:02:57;6.17;;;3.40;;
19016;SDS011;9641;51.494;6.670;2022-08-21T03:05:27;7.87;;;3.87;;
19016;SDS011;9641;51.494;6.670;2022-08-21T03:07:56;6.60;;;3.20;;
19016;SDS011;9641;51.494;6.670;2022-08-21T03:10:24;6.73;;;3.80;;
19016;SDS011;9641;51.494;6.670;2022-08-21T03:12:51;4.40;;;3.30;;
19016;SDS011;9641;51.494;6.670;2022-08-21T03:15:20;6.23;;;3.53;;
19016;SDS011;9641;51.494;6.670;2022-08-21T03:17:50;6.40;;;3.47;;
19016;SDS011;9641;51.494;6.670;2022-08-21T03:20:19;5.47;;;3.53;;
19016;SDS011;9641;51.494;6.670;2022-08-21T03:22:49;5.90;;;3.30;;
19016;SDS011;9641;51.494;6.670;2022-08-21T03:25:16;6.00;;;3.67;;
19016;SDS011;9641;51.494;6.670;2022-08-21T03:27:44;6.20;;;3.20;;
19016;SDS011;9641;51.494;6.670;2022-08-21T03:30:12;5.90;;;4.00;;
19016;SDS011;9641;51.494;6.670;2022-08-21T03:32:39;6.57;;;3.80;;
19016;SDS011;9641;51.494;6.670;2022-08-21T03:35:06;8.60;;;4.17;;
19016;SDS011;9641;51.494;6.670;2022-08-21T03:37:34;5.13;;;3.87;;
19016;SDS011;9641;51.494;6.670;2022-08-21T03:40:02;9.07;;;4.07;;
19016;SDS011;9641;51.494;6.670;2022-08-21T03:42:30;9.57;;;4.10;;
19016;SDS011;9641;51.494;6.670;2022-08-21T03:44:56;5.97;;;3.83;;
19016;SDS011;9641;51.494;6.670;2022-08-21T03:47:24;10.50;;;4.67;;
19016;SDS011;9641;51.494;6.670;2022-08-21T03:49:50;7.03;;;4.63;;
19016;SDS011;9641;51.494;6.670;2022-08-21T03:52:17;8.73;;;4.47;;
19016;SDS011;9641;51.494;6.670;2022-08-21T03:54:44;8.83;;;4.87;;
19016;SDS011;9641;51.494;6.670;2022-08-21T03:57:13;9.40;;;5.00;;
19016;SDS011;9641;51.494;6.670;2022-08-21T03:59:40;6.07;;;4.30;;
19016;SDS011;9641;51.494;6.670;2022-08-21T04:02:07;9.00;;;5.40;;
19016;SDS011;9641;51.494;6.670;2022-08-21T04:04:35;8.43;;;5.70;;
19016;SDS011;9641;51.494;6.670;2022-08-21T04:07:03;7.93;;;6.17;;
19016;SDS011;9641;51.494;6.670;2022-08-21T04:09:30;8.83;;;6.07;;
19016;SDS011;9641;51.494;6.670;2022-08-21T04:11:57;8.73;;;6.23;;
19016;SDS011;9641;51.494;6.670;2022-08-21T04:14:27;11.17;;;5.87;;
19016;SDS011;9641;51.494;6.670;2022-08-21T04:16:53;9.10;;;6.07;;
19016;SDS011;9641;51.494;6.670;2022-08-21T04:19:20;7.67;;;5.30;;
19016;SDS011;9641;51.494;6.670;2022-08-21T04:21:48;6.40;;;5.47;;
19016;SDS011;9641;51.494;6.670;2022-08-21T04:24:15;7.30;;;5.77;;
19016;SDS011;9641;51.494;6.670;2022-08-21T04:26:42;9.23;;;5.97;;
19016;SDS011;9641;51.494;6.670;2022-08-21T04:29:09;6.80;;;5.67;;
19016;SDS011;9641;51.494;6.670;2022-08-21T04:31:37;8.33;;;5.63;;
19016;SDS011;9641;51.494;6.670;2022-08-21T04:34:05;6.83;;;5.10;;
19016;SDS011;9641;51.494;6.670;2022-08-21T04:36:32;8.60;;;5.27;;
19016;SDS011;9641;51.494;6.670;2022-08-21T04:38:59;6.23;;;4.90;;
19016;SDS011;9641;51.494;6.670;2022-08-21T04:41:26;10.67;;;5.67;;
19016;SDS011;9641;51.494;6.670;2022-08-21T04:43:54;9.87;;;6.20;;
19016;SDS011;9641;51.494;6.670;2022-08-21T04:46:21;10.93;;;6.30;;
19016;SDS011;9641;51.494;6.670;2022-08-21T04:48:49;8.00;;;6.00;;
19016;SDS011;9641;51.494;6.670;2022-08-21T04:51:17;11.07;;;5.87;;
19016;SDS011;9641;51.494;6.670;2022-08-21T04:53:49;10.73;;;6.33;;
19016;SDS011;9641;51.494;6.670;2022-08-21T04:56:19;6.83;;;5.83;;
19016;SDS011;9641;51.494;6.670;2022-08-21T04:58:49;7.20;;;5.97;;
19016;SDS011;9641;51.494;6.670;2022-08-21T05:01:19;9.97;;;6.60;;
19016;SDS011;9641;51.494;6.670;2022-08-21T05:03:50;7.33;;;6.23;;
19016;SDS011;9641;51.494;6.670;2022-08-21T05:06:20;12.47;;;7.00;;
19016;SDS011;9641;51.494;6.670;2022-08-21T05:08:50;8.53;;;7.37;;
19016;SDS011;9641;51.494;6.670;2022-08-21T05:11:21;10.20;;;7.13;;
19016;SDS011;9641;51.494;6.670;2022-08-21T05:13:48;12.50;;;7.77;;
19016;SDS011;9641;51.494;6.670;2022-08-21T05:16:16;17.17;;;8.03;;
19016;SDS011;9641;51.494;6.670;2022-08-21T05:18:43;11.47;;;8.13;;
19016;SDS011;9641;51.494;6.670;2022-08-21T05:21:11;15.23;;;8.03;;
19016;SDS011;9641;51.494;6.670;2022-08-21T05:23:38;9.70;;;7.60;;
19016;SDS011;9641;51.494;6.670;2022-08-21T05:26:05;12.63;;;8.40;;
19016;SDS011;9641;51.494;6.670;2022-08-21T05:28:31;14.97;;;8.50;;
19016;SDS011;9641;51.494;6.670;2022-08-21T05:30:58;10.70;;;7.70;;
19016;SDS011;9641;51.494;6.670;2022-08-21T05:33:25;14.43;;;7.87;;
19016;SDS011;9641;51.494;6.670;2022-08-21T05:35:53;12.27;;;8.20;;
19016;SDS011;9641;51.494;6.670;2022-08-21T05:38:22;12.23;;;8.20;;
19016;SDS011;9641;51.494;6.670;2022-08-21T05:40:49;11.30;;;7.30;;
19016;SDS011;9641;51.494;6.670;2022-08-21T05:43:16;14.13;;;7.80;;
19016;SDS011;9641;51.494;6.670;2022-08-21T05:45:43;12.03;;;7.17;;
19016;SDS011;9641;51.494;6.670;2022-08-21T05:48:10;12.67;;;6.70;;
19016;SDS011;9641;51.494;6.670;2022-08-21T05:50:39;11.13;;;7.10;;
19016;SDS011;9641;51.494;6.670;2022-08-21T05:53:06;11.83;;;7.30;;
19016;SDS011;9641;51.494;6.670;2022-08-21T05:55:34;7.53;;;6.20;;
19016;SDS011;9641;51.494;6.670;2022-08-21T05:58:02;10.27;;;6.73;;
19016;SDS011;9641;51.494;6.670;2022-08-21T06:00:30;10.37;;;6.57;;
19016;SDS011;9641;51.494;6.670;2022-08-21T06:02:58;10.07;;;5.53;;
19016;SDS011;9641;51.494;6.670;2022-08-21T06:05:25;11.57;;;6.30;;
19016;SDS011;9641;51.494;6.670;2022-08-21T06:07:52;10.30;;;5.37;;
19016;SDS011;9641;51.494;6.670;2022-08-21T06:10:19;11.37;;;5.60;;
19016;SDS011;9641;51.494;6.670;2022-08-21T06:12:48;7.60;;;5.23;;
19016;SDS011;9641;51.494;6.670;2022-08-21T06:15:19;7.23;;;5.70;;
19016;SDS011;9641;51.494;6.670;2022-08-21T06:17:46;11.20;;;5.63;;
19016;SDS011;9641;51.494;6.670;2022-08-21T06:20:12;7.90;;;5.23;;
19016;SDS011;9641;51.494;6.670;2022-08-21T06:22:39;9.33;;;5.50;;
19016;SDS011;9641;51.494;6.670;2022-08-21T06:25:06;6.83;;;4.80;;
19016;SDS011;9641;51.494;6.670;2022-08-21T06:27:34;13.03;;;5.33;;
19016;SDS011;9641;51.494;6.670;2022-08-21T06:30:02;9.33;;;4.93;;
19016;SDS011;9641;51.494;6.670;2022-08-21T06:32:29;6.77;;;4.77;;
19016;SDS011;9641;51.494;6.670;2022-08-21T06:34:56;6.70;;;5.07;;
19016;SDS011;9641;51.494;6.670;2022-08-21T06:37:23;7.37;;;4.83;;
19016;SDS011;9641;51.494;6.670;2022-08-21T06:39:50;11.57;;;5.07;;
19016;SDS011;9641;51.494;6.670;2022-08-21T06:42:17;8.33;;;4.00;;
19016;SDS011;9641;51.494;6.670;2022-08-21T06:44:44;7.03;;;4.60;;
19016;SDS011;9641;51.494;6.670;2022-08-21T06:47:14;10.37;;;4.67;;
19016;SDS011;9641;51.494;6.670;2022-08-21T06:49:41;8.30;;;4.40;;
19016;SDS011;9641;51.494;6.670;2022-08-21T06:52:08;7.47;;;4.73;;
19016;SDS011;9641;51.494;6.670;2022-08-21T06:54:36;7.70;;;4.10;;
19016;SDS011;9641;51.494;6.670;2022-08-21T06:57:03;7.63;;;3.90;;
19016;SDS011;9641;51.494;6.670;2022-08-21T06:59:30;8.73;;;3.40;;
19016;SDS011;9641;51.494;6.670;2022-08-21T07:01:57;6.83;;;3.47;;
19016;SDS011;9641;51.494;6.670;2022-08-21T07:04:25;5.63;;;3.50;;
19016;SDS011;9641;51.494;6.670;2022-08-21T07:06:52;6.63;;;3.60;;
19016;SDS011;9641;51.494;6.670;2022-08-21T07:09:19;8.10;;;3.73;;
19016;SDS011;9641;51.494;6.670;2022-08-21T07:11:47;9.40;;;3.63;;
19016;SDS011;9641;51.494;6.670;2022-08-21T07:14:17;7.07;;;3.43;;
19016;SDS011;9641;51.494;6.670;2022-08-21T07:16:44;8.17;;;3.10;;
19016;SDS011;9641;51.494;6.670;2022-08-21T07:19:11;4.60;;;3.37;;
19016;SDS011;9641;51.494;6.670;2022-08-21T07:21:39;4.90;;;2.93;;
19016;SDS011;9641;51.494;6.670;2022-08-21T07:24:06;5.60;;;3.23;;
19016;SDS011;9641;51.494;6.670;2022-08-21T07:26:33;5.67;;;3.03;;
19016;SDS011;9641;51.494;6.670;2022-08-21T07:29:00;9.13;;;2.77;;
19016;SDS011;9641;51.494;6.670;2022-08-21T07:31:27;9.67;;;2.93;;
19016;SDS011;9641;51.494;6.670;2022-08-21T07:33:54;3.30;;;2.40;;
19016;SDS011;9641;51.494;6.670;2022-08-21T07:36:21;5.33;;;2.50;;
19016;SDS011;9641;51.494;6.670;2022-08-21T07:38:51;11.97;;;2.10;;
19016;SDS011;9641;51.494;6.670;2022-08-21T07:41:19;7.70;;;2.30;;
19016;SDS011;9641;51.494;6.670;2022-08-21T07:43:48;6.13;;;2.30;;
19016;SDS011;9641;51.494;6.670;2022-08-21T07:46:15;4.23;;;1.60;;
19016;SDS011;9641;51.494;6.670;2022-08-21T07:48:46;7.70;;;2.47;;
19016;SDS011;9641;51.494;6.670;2022-08-21T07:51:13;5.07;;;2.03;;
19016;SDS011;9641;51.494;6.670;2022-08-21T07:53:42;10.10;;;2.53;;
19016;SDS011;9641;51.494;6.670;2022-08-21T07:56:15;4.73;;;2.10;;
19016;SDS011;9641;51.494;6.670;2022-08-21T07:58:43;4.23;;;2.10;;
19016;SDS011;9641;51.494;6.670;2022-08-21T08:01:10;6.60;;;2.30;;
19016;SDS011;9641;51.494;6.670;2022-08-21T08:03:37;7.03;;;2.10;;
19016;SDS011;9641;51.494;6.670;2022-08-21T08:06:05;3.63;;;1.73;;
19016;SDS011;9641;51.494;6.670;2022-08-21T08:08:36;3.50;;;1.60;;
19016;SDS011;9641;51.494;6.670;2022-08-21T08:11:03;5.47;;;1.90;;
19016;SDS011;9641;51.494;6.670;2022-08-21T08:13:37;4.00;;;1.77;;
19016;SDS011;9641;51.494;6.670;2022-08-21T08:16:05;4.23;;;1.30;;
19016;SDS011;9641;51.494;6.670;2022-08-21T08:18:32;5.37;;;1.57;;
19016;SDS011;9641;51.494;6.670;2022-08-21T08:20:59;5.20;;;1.80;;
19016;SDS011;9641;51.494;6.670;2022-08-21T08:23:26;5.27;;;1.53;;
19016;SDS011;9641;51.494;6.670;2022-08-21T08:25:55;4.00;;;1.43;;
19016;SDS011;9641;51.494;6.670;2022-08-21T08:28:22;3.03;;;1.00;;
19016;SDS011;9641;51.494;6.670;2022-08-21T08:30:50;3.17;;;1.65;;
19016;SDS011;9641;51.494;6.670;2022-08-21T08:33:17;5.30;;;1.40;;
19016;SDS011;9641;51.494;6.670;2022-08-21T08:35:45;6.90;;;1.80;;
19016;SDS011;9641;51.494;6.670;2022-08-21T08:38:14;3.47;;;1.40;;
19016;SDS011;9641;51.494;6.670;2022-08-21T08:40:46;2.57;;;1.20;;
19016;SDS011;9641;51.494;6.670;2022-08-21T08:43:18;3.60;;;1.40;;
19016;SDS011;9641;51.494;6.670;2022-08-21T08:45:46;4.47;;;1.40;;
19016;SDS011;9641;51.494;6.670;2022-08-21T08:48:19;4.43;;;1.45;;
19016;SDS011;9641;51.494;6.670;2022-08-21T08:51:13;1.88;;;1.20;;
19016;SDS011;9641;51.494;6.670;2022-08-21T08:53:47;3.30;;;1.05;;
19016;SDS011;9641;51.494;6.670;2022-08-21T08:56:18;5.50;;;1.38;;
19016;SDS011;9641;51.494;6.670;2022-08-21T08:58:49;3.30;;;1.10;;
19016;SDS011;9641;51.494;6.670;2022-08-21T09:01:18;4.78;;;1.23;;
19016;SDS011;9641;51.494;6.670;2022-08-21T09:03:48;3.17;;;1.10;;
19016;SDS011;9641;51.494;6.670;2022-08-21T09:06:24;3.90;;;1.10;;
19016;SDS011;9641;51.494;6.670;2022-08-21T09:09:12;2.77;;;1.33;;
19016;SDS011;9641;51.494;6.670;2022-08-21T09:11:52;3.97;;;1.30;;
19016;SDS011;9641;51.494;6.670;2022-08-21T09:14:30;4.30;;;1.40;;
19016;SDS011;9641;51.494;6.670;2022-08-21T09:17:13;3.63;;;1.20;;
19016;SDS011;9641;51.494;6.670;2022-08-21T09:19:54;2.30;;;1.33;;
19016;SDS011;9641;51.494;6.670;2022-08-21T09:22:30;5.38;;;1.40;;
19016;SDS011;9641;51.494;6.670;2022-08-21T09:25:07;5.30;;;1.25;;
19016;SDS011;9641;51.494;6.670;2022-08-21T09:27:38;4.00;;;1.30;;
19016;SDS011;9641;51.494;6.670;2022-08-21T09:30:06;7.35;;;1.50;;
19016;SDS011;9641;51.494;6.670;2022-08-21T09:32:34;1.45;;;1.20;;
19016;SDS011;9641;51.494;6.670;2022-08-21T09:35:06;3.65;;;1.35;;
19016;SDS011;9641;51.494;6.670;2022-08-21T09:37:44;4.38;;;1.42;;
19016;SDS011;9641;51.494;6.670;2022-08-21T09:43:01;4.80;;;1.70;;
19016;SDS011;9641;51.494;6.670;2022-08-21T09:45:30;3.60;;;1.20;;
19016;SDS011;9641;51.494;6.670;2022-08-21T09:48:07;3.90;;;1.65;;
19016;SDS011;9641;51.494;6.670;2022-08-21T09:50:36;5.25;;;1.58;;
19016;SDS011;9641;51.494;6.670;2022-08-21T09:53:13;4.32;;;1.48;;
19016;SDS011;9641;51.494;6.670;2022-08-21T09:55:46;1.88;;;1.52;;
19016;SDS011;9641;51.494;6.670;2022-08-21T09:58:34;3.95;;;1.42;;
19016;SDS011;9641;51.494;6.670;2022-08-21T10:01:03;3.55;;;1.33;;
19016;SDS011;9641;51.494;6.670;2022-08-21T10:03:31;4.90;;;1.38;;
19016;SDS011;9641;51.494;6.670;2022-08-21T10:06:00;4.15;;;1.08;;
19016;SDS011;9641;51.494;6.670;2022-08-21T10:08:30;2.63;;;1.20;;
19016;SDS011;9641;51.494;6.670;2022-08-21T10:11:01;3.17;;;1.13;;
19016;SDS011;9641;51.494;6.670;2022-08-21T10:13:33;5.90;;;1.38;;
19016;SDS011;9641;51.494;6.670;2022-08-21T10:16:15;2.15;;;1.20;;
19016;SDS011;9641;51.494;6.670;2022-08-21T10:18:54;3.00;;;1.60;;
19016;SDS011;9641;51.494;6.670;2022-08-21T10:21:30;3.10;;;1.20;;
19016;SDS011;9641;51.494;6.670;2022-08-21T10:24:06;4.07;;;1.63;;
19016;SDS011;9641;51.494;6.670;2022-08-21T10:26:43;4.30;;;1.42;;
19016;SDS011;9641;51.494;6.670;2022-08-21T10:29:21;6.28;;;1.40;;
19016;SDS011;9641;51.494;6.670;2022-08-21T10:31:58;3.80;;;1.77;;
19016;SDS011;9641;51.494;6.670;2022-08-21T10:34:34;3.38;;;1.27;;
19016;SDS011;9641;51.494;6.670;2022-08-21T10:37:18;3.17;;;1.00;;
19016;SDS011;9641;51.494;6.670;2022-08-21T10:40:00;1.67;;;0.90;;
19016;SDS011;9641;51.494;6.670;2022-08-21T10:42:36;7.78;;;1.20;;
19016;SDS011;9641;51.494;6.670;2022-08-21T10:45:13;3.15;;;1.20;;
19016;SDS011;9641;51.494;6.670;2022-08-21T10:47:59;5.03;;;1.05;;
19016;SDS011;9641;51.494;6.670;2022-08-21T10:50:30;4.18;;;0.90;;
19016;SDS011;9641;51.494;6.670;2022-08-21T10:53:05;2.05;;;0.70;;
19016;SDS011;9641;51.494;6.670;2022-08-21T10:55:52;2.65;;;0.88;;
19016;SDS011;9641;51.494;6.670;2022-08-21T10:58:25;2.65;;;0.80;;
19016;SDS011;9641;51.494;6.670;2022-08-21T11:00:56;2.33;;;1.10;;
19016;SDS011;9641;51.494;6.670;2022-08-21T11:03:28;1.45;;;0.80;;
19016;SDS011;9641;51.494;6.670;2022-08-21T11:06:00;2.05;;;0.90;;
19016;SDS011;9641;51.494;6.670;2022-08-21T11:08:33;2.30;;;0.90;;
19016;SDS011;9641;51.494;6.670;2022-08-21T11:11:07;2.03;;;0.82;;
19016;SDS011;9641;51.494;6.670;2022-08-21T11:13:40;0.93;;;0.80;;
19016;SDS011;9641;51.494;6.670;2022-08-21T11:16:13;1.30;;;0.75;;
19016;SDS011;9641;51.494;6.670;2022-08-21T11:18:49;1.23;;;0.63;;
19016;SDS011;9641;51.494;6.670;2022-08-21T11:21:32;1.92;;;0.88;;
19016;SDS011;9641;51.494;6.670;2022-08-21T11:24:08;2.13;;;0.80;;
19016;SDS011;9641;51.494;6.670;2022-08-21T11:26:44;1.70;;;0.70;;
19016;SDS011;9641;51.494;6.670;2022-08-21T11:29:16;2.65;;;0.90;;
19016;SDS011;9641;51.494;6.670;2022-08-21T11:31:51;4.07;;;0.90;;
19016;SDS011;9641;51.494;6.670;2022-08-21T11:34:33;2.63;;;0.80;;
19016;SDS011;9641;51.494;6.670;2022-08-21T11:37:09;2.20;;;0.90;;
19016;SDS011;9641;51.494;6.670;2022-08-21T11:39:49;4.50;;;1.20;;
19016;SDS011;9641;51.494;6.670;2022-08-21T11:42:24;3.30;;;1.17;;
19016;SDS011;9641;51.494;6.670;2022-08-21T11:45:01;2.50;;;1.13;;
19016;SDS011;9641;51.494;6.670;2022-08-21T11:47:41;3.67;;;1.00;;
19016;SDS011;9641;51.494;6.670;2022-08-21T11:50:18;1.35;;;0.80;;
19016;SDS011;9641;51.494;6.670;2022-08-21T11:52:48;1.38;;;0.60;;
19016;SDS011;9641;51.494;6.670;2022-08-21T11:55:23;1.30;;;0.57;;
19016;SDS011;9641;51.494;6.670;2022-08-21T11:57:57;2.90;;;0.90;;
19016;SDS011;9641;51.494;6.670;2022-08-21T12:00:29;3.67;;;0.90;;
19016;SDS011;9641;51.494;6.670;2022-08-21T12:03:07;1.10;;;0.65;;
19016;SDS011;9641;51.494;6.670;2022-08-21T12:05:38;2.47;;;0.95;;
19016;SDS011;9641;51.494;6.670;2022-08-21T12:08:09;2.05;;;1.02;;
19016;SDS011;9641;51.494;6.670;2022-08-21T12:10:40;1.65;;;0.82;;
19016;SDS011;9641;51.494;6.670;2022-08-21T12:13:22;7.05;;;1.13;;
19016;SDS011;9641;51.494;6.670;2022-08-21T12:15:52;3.15;;;0.75;;
19016;SDS011;9641;51.494;6.670;2022-08-21T12:18:30;4.03;;;0.77;;
19016;SDS011;9641;51.494;6.670;2022-08-21T12:20:59;4.03;;;0.80;;
19016;SDS011;9641;51.494;6.670;2022-08-21T12:23:29;3.97;;;0.65;;
19016;SDS011;9641;51.494;6.670;2022-08-21T12:26:01;3.17;;;0.70;;
19016;SDS011;9641;51.494;6.670;2022-08-21T12:28:47;6.57;;;0.93;;
19016;SDS011;9641;51.494;6.670;2022-08-21T12:31:18;3.13;;;0.82;;
19016;SDS011;9641;51.494;6.670;2022-08-21T12:33:50;1.10;;;0.50;;
19016;SDS011;9641;51.494;6.670;2022-08-21T12:36:21;1.02;;;0.43;;
19016;SDS011;9641;51.494;6.670;2022-08-21T12:38:51;4.30;;;1.00;;
19016;SDS011;9641;51.494;6.670;2022-08-21T12:41:24;1.73;;;0.82;;
19016;SDS011;9641;51.494;6.670;2022-08-21T12:43:57;1.80;;;0.85;;
19016;SDS011;9641;51.494;6.670;2022-08-21T12:46:27;4.63;;;0.82;;
19016;SDS011;9641;51.494;6.670;2022-08-21T12:49:02;1.67;;;0.80;;
19016;SDS011;9641;51.494;6.670;2022-08-21T12:51:43;3.30;;;1.15;;
19016;SDS011;9641;51.494;6.670;2022-08-21T12:54:23;2.13;;;0.88;;
19016;SDS011;9641;51.494;6.670;2022-08-21T12:56:57;3.13;;;0.95;;
19016;SDS011;9641;51.494;6.670;2022-08-21T12:59:28;4.43;;;0.90;;
19016;SDS011;9641;51.494;6.670;2022-08-21T13:01:56;2.05;;;0.50;;
19016;SDS011;9641;51.494;6.670;2022-08-21T13:04:31;2.47;;;0.60;;
19016;SDS011;9641;51.494;6.670;2022-08-21T13:07:04;1.00;;;0.50;;
19016;SDS011;9641;51.494;6.670;2022-08-21T13:09:36;1.35;;;0.50;;
19016;SDS011;9641;51.494;6.670;2022-08-21T13:12:08;2.28;;;0.63;;
19016;SDS011;9641;51.494;6.670;2022-08-21T13:14:36;1.52;;;0.60;;
19016;SDS011;9641;51.494;6.670;2022-08-21T13:17:06;3.58;;;1.10;;
19016;SDS011;9641;51.494;6.670;2022-08-21T13:19:33;1.77;;;0.52;;
19016;SDS011;9641;51.494;6.670;2022-08-21T13:22:01;2.47;;;0.55;;
19016;SDS011;9641;51.494;6.670;2022-08-21T13:24:29;1.73;;;0.90;;
19016;SDS011;9641;51.494;6.670;2022-08-21T13:27:00;2.35;;;0.82;;
19016;SDS011;9641;51.494;6.670;2022-08-21T13:29:30;3.95;;;0.90;;
19016;SDS011;9641;51.494;6.670;2022-08-21T13:32:00;1.48;;;0.70;;
19016;SDS011;9641;51.494;6.670;2022-08-21T13:34:31;1.20;;;0.60;;
19016;SDS011;9641;51.494;6.670;2022-08-21T13:37:02;2.30;;;0.68;;
19016;SDS011;9641;51.494;6.670;2022-08-21T13:39:32;3.33;;;0.70;;
19016;SDS011;9641;51.494;6.670;2022-08-21T13:41:59;2.25;;;0.80;;
19016;SDS011;9641;51.494;6.670;2022-08-21T13:44:34;2.15;;;0.60;;
19016;SDS011;9641;51.494;6.670;2022-08-21T13:47:03;3.22;;;0.80;;
19016;SDS011;9641;51.494;6.670;2022-08-21T13:49:31;2.88;;;0.80;;
19016;SDS011;9641;51.494;6.670;2022-08-21T13:52:00;4.65;;;0.80;;
19016;SDS011;9641;51.494;6.670;2022-08-21T13:54:29;1.67;;;0.70;;
19016;SDS011;9641;51.494;6.670;2022-08-21T13:57:00;3.15;;;0.60;;
19016;SDS011;9641;51.494;6.670;2022-08-21T13:59:27;2.10;;;0.60;;
19016;SDS011;9641;51.494;6.670;2022-08-21T14:01:57;1.65;;;0.63;;
19016;SDS011;9641;51.494;6.670;2022-08-21T14:04:31;2.65;;;0.70;;
19016;SDS011;9641;51.494;6.670;2022-08-21T14:07:00;3.30;;;0.90;;
19016;SDS011;9641;51.494;6.670;2022-08-21T14:09:40;4.10;;;0.95;;
19016;SDS011;9641;51.494;6.670;2022-08-21T14:12:11;2.88;;;0.77;;
19016;SDS011;9641;51.494;6.670;2022-08-21T14:14:41;1.98;;;0.75;;
19016;SDS011;9641;51.494;6.670;2022-08-21T14:17:10;3.25;;;1.15;;
19016;SDS011;9641;51.494;6.670;2022-08-21T14:19:41;0.80;;;0.60;;
19016;SDS011;9641;51.494;6.670;2022-08-21T14:22:27;2.55;;;1.10;;
19016;SDS011;9641;51.494;6.670;2022-08-21T14:25:01;3.90;;;1.02;;
19016;SDS011;9641;51.494;6.670;2022-08-21T14:27:31;3.60;;;0.95;;
19016;SDS011;9641;51.494;6.670;2022-08-21T14:29:59;0.60;;;0.40;;
19016;SDS011;9641;51.494;6.670;2022-08-21T14:32:37;1.35;;;0.70;;
19016;SDS011;9641;51.494;6.670;2022-08-21T14:35:05;1.85;;;0.73;;
19016;SDS011;9641;51.494;6.670;2022-08-21T14:37:33;1.38;;;0.90;;
19016;SDS011;9641;51.494;6.670;2022-08-21T14:40:01;3.20;;;1.23;;
19016;SDS011;9641;51.494;6.670;2022-08-21T14:42:29;1.38;;;0.50;;
19016;SDS011;9641;51.494;6.670;2022-08-21T14:44:57;1.02;;;0.57;;
19016;SDS011;9641;51.494;6.670;2022-08-21T14:47:27;1.67;;;0.70;;
19016;SDS011;9641;51.494;6.670;2022-08-21T14:49:56;7.15;;;0.70;;
19016;SDS011;9641;51.494;6.670;2022-08-21T14:52:23;1.98;;;0.90;;
19016;SDS011;9641;51.494;6.670;2022-08-21T14:54:50;2.83;;;0.63;;
19016;SDS011;9641;51.494;6.670;2022-08-21T14:57:18;2.80;;;0.73;;
19016;SDS011;9641;51.494;6.670;2022-08-21T14:59:45;1.75;;;0.80;;
19016;SDS011;9641;51.494;6.670;2022-08-21T15:02:12;0.63;;;0.43;;
19016;SDS011;9641;51.494;6.670;2022-08-21T15:04:38;4.32;;;0.70;;
19016;SDS011;9641;51.494;6.670;2022-08-21T15:07:08;2.90;;;0.90;;
19016;SDS011;9641;51.494;6.670;2022-08-21T15:09:34;2.70;;;0.80;;
19016;SDS011;9641;51.494;6.670;2022-08-21T15:12:02;3.10;;;0.82;;
19016;SDS011;9641;51.494;6.670;2022-08-21T15:14:30;2.67;;;0.82;;
19016;SDS011;9641;51.494;6.670;2022-08-21T15:17:01;3.67;;;0.60;;
19016;SDS011;9641;51.494;6.670;2022-08-21T15:19:29;1.17;;;0.77;;